sensor_id;sensor_type;location;lat;lon;timestamp;temperature;humidity
37658;DHT22;23500;53.268;8.308;2022-07-29T00:01:49;19.90;63.70
37658;DHT22;23500;53.268;8.308;2022-07-29T00:04:15;19.90;64.10
37658;DHT22;23500;53.268;8.308;2022-07-29T00:06:40;19.90;64.00
37658;DHT22;23500;53.268;8.308;2022-07-29T00:09:06;19.90;63.90
37658;DHT22;23500;53.268;8.308;2022-07-29T00:11:32;19.90;64.10
37658;DHT22;23500;53.268;8.308;2022-07-29T00:13:58;19.90;64.10
37658;DHT22;23500;53.268;8.308;2022-07-29T00:16:23;19.90;64.10
37658;DHT22;23500;53.268;8.308;2022-07-29T00:18:49;19.90;64.30
37658;DHT22;23500;53.268;8.308;2022-07-29T00:21:15;19.90;64.20
37658;DHT22;23500;53.268;8.308;2022-07-29T00:23:40;19.80;64.40
37658;DHT22;23500;53.268;8.308;2022-07-29T00:26:06;19.90;64.50
37658;DHT22;23500;53.268;8.308;2022-07-29T00:28:32;19.80;64.30
37658;DHT22;23500;53.268;8.308;2022-07-29T00:30:57;19.80;64.10
37658;DHT22;23500;53.268;8.308;2022-07-29T00:33:23;19.80;64.70
37658;DHT22;23500;53.268;8.308;2022-07-29T00:35:49;19.80;64.40
37658;DHT22;23500;53.268;8.308;2022-07-29T00:38:17;19.80;65.00
37658;DHT22;23500;53.268;8.308;2022-07-29T00:40:43;19.80;64.60
37658;DHT22;23500;53.268;8.308;2022-07-29T00:43:09;19.80;64.90
37658;DHT22;23500;53.268;8.308;2022-07-29T00:45:35;19.80;64.90
37658;DHT22;23500;53.268;8.308;2022-07-29T00:48:02;19.80;64.20
37658;DHT22;23500;53.268;8.308;2022-07-29T00:50:28;19.80;64.10
37658;DHT22;23500;53.268;8.308;2022-07-29T00:52:54;19.80;64.70
37658;DHT22;23500;53.268;8.308;2022-07-29T00:55:20;19.80;65.10
37658;DHT22;23500;53.268;8.308;2022-07-29T00:57:46;19.80;65.30
37658;DHT22;23500;53.268;8.308;2022-07-29T01:00:16;19.80;65.10
37658;DHT22;23500;53.268;8.308;2022-07-29T01:02:43;19.70;65.20
37658;DHT22;23500;53.268;8.308;2022-07-29T01:05:10;19.70;64.70
37658;DHT22;23500;53.268;8.308;2022-07-29T01:07:37;19.70;65.20
37658;DHT22;23500;53.268;8.308;2022-07-29T01:10:08;19.70;65.30
37658;DHT22;23500;53.268;8.308;2022-07-29T01:12:35;19.70;65.30
37658;DHT22;23500;53.268;8.308;2022-07-29T01:15:03;19.70;65.10
37658;DHT22;23500;53.268;8.308;2022-07-29T01:20:26;19.70;65.20
37658;DHT22;23500;53.268;8.308;2022-07-29T01:26:00;19.70;64.80
37658;DHT22;23500;53.268;8.308;2022-07-29T01:34:23;19.60;64.80
37658;DHT22;23500;53.268;8.308;2022-07-29T01:37:22;19.60;64.80
37658;DHT22;23500;53.268;8.308;2022-07-29T01:39:48;19.60;65.50
37658;DHT22;23500;53.268;8.308;2022-07-29T01:45:17;19.60;65.60
37658;DHT22;23500;53.268;8.308;2022-07-29T01:47:52;19.60;65.70
37658;DHT22;23500;53.268;8.308;2022-07-29T01:50:26;19.60;65.50
37658;DHT22;23500;53.268;8.308;2022-07-29T01:53:00;19.50;65.60
37658;DHT22;23500;53.268;8.308;2022-07-29T01:55:29;19.50;65.10
37658;DHT22;23500;53.268;8.308;2022-07-29T01:57:57;19.50;65.80
37658;DHT22;23500;53.268;8.308;2022-07-29T02:00:25;19.50;65.80
37658;DHT22;23500;53.268;8.308;2022-07-29T02:02:52;19.50;65.60
37658;DHT22;23500;53.268;8.308;2022-07-29T02:05:21;19.50;66.00
37658;DHT22;23500;53.268;8.308;2022-07-29T02:07:49;19.50;65.90
37658;DHT22;23500;53.268;8.308;2022-07-29T02:10:18;19.50;66.00
37658;DHT22;23500;53.268;8.308;2022-07-29T02:12:45;19.50;65.60
37658;DHT22;23500;53.268;8.308;2022-07-29T02:15:11;19.50;65.70
37658;DHT22;23500;53.268;8.308;2022-07-29T02:17:50;19.50;65.90
37658;DHT22;23500;53.268;8.308;2022-07-29T02:20:17;19.50;66.20
37658;DHT22;23500;53.268;8.308;2022-07-29T02:22:43;19.50;66.10
37658;DHT22;23500;53.268;8.308;2022-07-29T02:25:11;19.50;66.10
37658;DHT22;23500;53.268;8.308;2022-07-29T02:27:38;19.50;65.30
37658;DHT22;23500;53.268;8.308;2022-07-29T02:30:06;19.50;65.60
37658;DHT22;23500;53.268;8.308;2022-07-29T02:32:35;19.50;65.70
37658;DHT22;23500;53.268;8.308;2022-07-29T02:35:03;19.50;65.90
37658;DHT22;23500;53.268;8.308;2022-07-29T02:37:29;19.50;66.20
37658;DHT22;23500;53.268;8.308;2022-07-29T02:39:57;19.50;66.00
37658;DHT22;23500;53.268;8.308;2022-07-29T02:42:24;19.50;66.20
37658;DHT22;23500;53.268;8.308;2022-07-29T02:44:52;19.50;65.90
37658;DHT22;23500;53.268;8.308;2022-07-29T02:55:31;19.40;66.00
37658;DHT22;23500;53.268;8.308;2022-07-29T02:58:31;19.40;66.20
37658;DHT22;23500;53.268;8.308;2022-07-29T03:01:01;19.40;65.80
37658;DHT22;23500;53.268;8.308;2022-07-29T03:03:35;19.40;66.30
37658;DHT22;23500;53.268;8.308;2022-07-29T03:06:02;19.40;66.00
37658;DHT22;23500;53.268;8.308;2022-07-29T03:08:29;19.40;66.20
37658;DHT22;23500;53.268;8.308;2022-07-29T03:10:56;19.40;66.70
37658;DHT22;23500;53.268;8.308;2022-07-29T03:13:23;19.40;66.50
37658;DHT22;23500;53.268;8.308;2022-07-29T03:15:50;19.40;66.80
37658;DHT22;23500;53.268;8.308;2022-07-29T03:18:16;19.40;66.70
37658;DHT22;23500;53.268;8.308;2022-07-29T03:20:42;19.40;66.50
37658;DHT22;23500;53.268;8.308;2022-07-29T03:23:08;19.40;66.30
37658;DHT22;23500;53.268;8.308;2022-07-29T03:25:34;19.40;66.50
37658;DHT22;23500;53.268;8.308;2022-07-29T03:28:00;19.40;66.20
37658;DHT22;23500;53.268;8.308;2022-07-29T03:30:25;19.40;66.60
37658;DHT22;23500;53.268;8.308;2022-07-29T03:32:53;19.40;66.50
37658;DHT22;23500;53.268;8.308;2022-07-29T03:35:19;19.40;66.80
37658;DHT22;23500;53.268;8.308;2022-07-29T03:37:45;19.40;66.30
37658;DHT22;23500;53.268;8.308;2022-07-29T03:40:16;19.40;67.10
37658;DHT22;23500;53.268;8.308;2022-07-29T03:42:44;19.40;66.40
37658;DHT22;23500;53.268;8.308;2022-07-29T03:45:14;19.40;66.30
37658;DHT22;23500;53.268;8.308;2022-07-29T03:47:48;19.40;66.60
37658;DHT22;23500;53.268;8.308;2022-07-29T03:50:16;19.40;66.30
37658;DHT22;23500;53.268;8.308;2022-07-29T03:52:42;19.30;66.60
37658;DHT22;23500;53.268;8.308;2022-07-29T03:55:09;19.40;66.70
37658;DHT22;23500;53.268;8.308;2022-07-29T03:57:36;19.30;66.60
37658;DHT22;23500;53.268;8.308;2022-07-29T04:00:04;19.30;66.70
37658;DHT22;23500;53.268;8.308;2022-07-29T04:02:32;19.30;66.40
37658;DHT22;23500;53.268;8.308;2022-07-29T04:04:57;19.30;66.70
37658;DHT22;23500;53.268;8.308;2022-07-29T04:07:23;19.30;66.70
37658;DHT22;23500;53.268;8.308;2022-07-29T04:09:49;19.30;66.80
37658;DHT22;23500;53.268;8.308;2022-07-29T04:12:14;19.40;66.90
37658;DHT22;23500;53.268;8.308;2022-07-29T04:14:40;19.30;66.90
37658;DHT22;23500;53.268;8.308;2022-07-29T04:17:06;19.30;66.80
37658;DHT22;23500;53.268;8.308;2022-07-29T04:19:32;19.30;66.80
37658;DHT22;23500;53.268;8.308;2022-07-29T04:21:58;19.30;67.00
37658;DHT22;23500;53.268;8.308;2022-07-29T04:24:25;19.30;66.40
37658;DHT22;23500;53.268;8.308;2022-07-29T04:26:50;19.40;67.00
37658;DHT22;23500;53.268;8.308;2022-07-29T04:29:16;19.30;67.00
37658;DHT22;23500;53.268;8.308;2022-07-29T04:31:42;19.30;66.80
37658;DHT22;23500;53.268;8.308;2022-07-29T04:34:09;19.30;67.10
37658;DHT22;23500;53.268;8.308;2022-07-29T04:36:34;19.30;66.70
37658;DHT22;23500;53.268;8.308;2022-07-29T04:39:00;19.30;67.00
37658;DHT22;23500;53.268;8.308;2022-07-29T04:41:27;19.30;67.00
37658;DHT22;23500;53.268;8.308;2022-07-29T04:43:53;19.30;67.00
37658;DHT22;23500;53.268;8.308;2022-07-29T04:46:19;19.30;67.40
37658;DHT22;23500;53.268;8.308;2022-07-29T04:48:48;19.30;66.90
37658;DHT22;23500;53.268;8.308;2022-07-29T04:51:16;19.30;66.60
37658;DHT22;23500;53.268;8.308;2022-07-29T04:53:42;19.30;67.20
37658;DHT22;23500;53.268;8.308;2022-07-29T04:56:08;19.30;66.40
37658;DHT22;23500;53.268;8.308;2022-07-29T04:58:36;19.30;67.30
37658;DHT22;23500;53.268;8.308;2022-07-29T05:01:03;19.30;66.90
37658;DHT22;23500;53.268;8.308;2022-07-29T05:03:29;19.30;67.30
37658;DHT22;23500;53.268;8.308;2022-07-29T05:05:54;19.30;66.80
37658;DHT22;23500;53.268;8.308;2022-07-29T05:08:20;19.30;67.00
37658;DHT22;23500;53.268;8.308;2022-07-29T05:10:46;19.30;66.80
37658;DHT22;23500;53.268;8.308;2022-07-29T05:13:11;19.30;66.40
37658;DHT22;23500;53.268;8.308;2022-07-29T05:15:38;19.30;67.00
37658;DHT22;23500;53.268;8.308;2022-07-29T05:18:04;19.30;67.70
37658;DHT22;23500;53.268;8.308;2022-07-29T05:20:31;19.30;67.40
37658;DHT22;23500;53.268;8.308;2022-07-29T05:22:58;19.30;67.30
37658;DHT22;23500;53.268;8.308;2022-07-29T05:25:25;19.30;67.50
37658;DHT22;23500;53.268;8.308;2022-07-29T05:27:51;19.30;67.20
37658;DHT22;23500;53.268;8.308;2022-07-29T05:30:17;19.30;67.40
37658;DHT22;23500;53.268;8.308;2022-07-29T05:32:42;19.30;67.50
37658;DHT22;23500;53.268;8.308;2022-07-29T05:35:08;19.40;67.40
37658;DHT22;23500;53.268;8.308;2022-07-29T05:37:34;19.40;67.50
37658;DHT22;23500;53.268;8.308;2022-07-29T05:40:00;19.40;67.10
37658;DHT22;23500;53.268;8.308;2022-07-29T05:42:26;19.40;67.10
37658;DHT22;23500;53.268;8.308;2022-07-29T05:44:52;19.40;66.90
37658;DHT22;23500;53.268;8.308;2022-07-29T05:47:18;19.40;67.00
37658;DHT22;23500;53.268;8.308;2022-07-29T05:49:44;19.40;66.60
37658;DHT22;23500;53.268;8.308;2022-07-29T05:52:10;19.40;67.60
37658;DHT22;23500;53.268;8.308;2022-07-29T05:54:35;19.40;67.30
37658;DHT22;23500;53.268;8.308;2022-07-29T05:57:02;19.40;67.20
37658;DHT22;23500;53.268;8.308;2022-07-29T05:59:28;19.40;67.50
37658;DHT22;23500;53.268;8.308;2022-07-29T06:01:54;19.40;66.80
37658;DHT22;23500;53.268;8.308;2022-07-29T06:04:20;19.40;67.10
37658;DHT22;23500;53.268;8.308;2022-07-29T06:06:45;19.40;67.10
37658;DHT22;23500;53.268;8.308;2022-07-29T06:09:11;19.40;66.90
37658;DHT22;23500;53.268;8.308;2022-07-29T06:11:36;19.40;67.20
37658;DHT22;23500;53.268;8.308;2022-07-29T06:14:02;19.40;67.40
37658;DHT22;23500;53.268;8.308;2022-07-29T06:16:28;19.40;66.90
37658;DHT22;23500;53.268;8.308;2022-07-29T06:18:54;19.50;67.30
37658;DHT22;23500;53.268;8.308;2022-07-29T06:21:20;19.50;67.00
37658;DHT22;23500;53.268;8.308;2022-07-29T06:23:47;19.50;66.90
37658;DHT22;23500;53.268;8.308;2022-07-29T06:26:12;19.50;67.60
37658;DHT22;23500;53.268;8.308;2022-07-29T06:28:38;19.50;66.70
37658;DHT22;23500;53.268;8.308;2022-07-29T06:31:05;19.50;67.10
37658;DHT22;23500;53.268;8.308;2022-07-29T06:33:31;19.60;67.40
37658;DHT22;23500;53.268;8.308;2022-07-29T06:35:57;19.60;67.40
37658;DHT22;23500;53.268;8.308;2022-07-29T06:38:22;19.70;66.20
37658;DHT22;23500;53.268;8.308;2022-07-29T06:40:48;19.70;66.30
37658;DHT22;23500;53.268;8.308;2022-07-29T06:43:36;19.80;66.40
37658;DHT22;23500;53.268;8.308;2022-07-29T06:46:08;19.80;65.80
37658;DHT22;23500;53.268;8.308;2022-07-29T06:48:35;19.80;65.70
37658;DHT22;23500;53.268;8.308;2022-07-29T06:51:02;19.90;65.90
37658;DHT22;23500;53.268;8.308;2022-07-29T06:53:29;19.90;66.10
37658;DHT22;23500;53.268;8.308;2022-07-29T06:55:55;19.90;66.00
37658;DHT22;23500;53.268;8.308;2022-07-29T06:58:21;19.90;65.10
37658;DHT22;23500;53.268;8.308;2022-07-29T07:00:47;20.00;65.00
37658;DHT22;23500;53.268;8.308;2022-07-29T07:03:14;20.00;65.30
37658;DHT22;23500;53.268;8.308;2022-07-29T07:05:40;20.00;65.40
37658;DHT22;23500;53.268;8.308;2022-07-29T07:08:06;20.00;64.80
37658;DHT22;23500;53.268;8.308;2022-07-29T07:10:33;20.00;64.30
37658;DHT22;23500;53.268;8.308;2022-07-29T07:12:59;20.00;65.50
37658;DHT22;23500;53.268;8.308;2022-07-29T07:15:26;20.10;65.20
37658;DHT22;23500;53.268;8.308;2022-07-29T07:17:52;20.10;64.60
37658;DHT22;23500;53.268;8.308;2022-07-29T07:20:18;20.10;64.90
37658;DHT22;23500;53.268;8.308;2022-07-29T07:22:44;20.10;65.00
37658;DHT22;23500;53.268;8.308;2022-07-29T07:25:10;20.20;65.30
37658;DHT22;23500;53.268;8.308;2022-07-29T07:27:36;20.20;65.10
37658;DHT22;23500;53.268;8.308;2022-07-29T07:30:06;20.20;64.80
37658;DHT22;23500;53.268;8.308;2022-07-29T07:32:35;20.20;64.60
37658;DHT22;23500;53.268;8.308;2022-07-29T07:35:03;20.30;64.80
37658;DHT22;23500;53.268;8.308;2022-07-29T07:37:28;20.30;65.20
37658;DHT22;23500;53.268;8.308;2022-07-29T07:39:54;20.30;65.30
37658;DHT22;23500;53.268;8.308;2022-07-29T07:42:20;20.30;65.00
37658;DHT22;23500;53.268;8.308;2022-07-29T07:44:45;20.40;64.60
37658;DHT22;23500;53.268;8.308;2022-07-29T07:47:13;20.40;64.10
37658;DHT22;23500;53.268;8.308;2022-07-29T07:49:39;20.40;64.50
37658;DHT22;23500;53.268;8.308;2022-07-29T07:52:05;20.40;65.10
37658;DHT22;23500;53.268;8.308;2022-07-29T07:54:31;20.50;64.80
37658;DHT22;23500;53.268;8.308;2022-07-29T07:56:57;20.50;64.50
37658;DHT22;23500;53.268;8.308;2022-07-29T07:59:23;20.60;63.70
37658;DHT22;23500;53.268;8.308;2022-07-29T08:01:49;20.70;64.30
37658;DHT22;23500;53.268;8.308;2022-07-29T08:04:15;20.70;64.60
37658;DHT22;23500;53.268;8.308;2022-07-29T08:06:41;20.80;64.70
37658;DHT22;23500;53.268;8.308;2022-07-29T08:09:07;20.90;65.20
37658;DHT22;23500;53.268;8.308;2022-07-29T08:11:33;20.90;65.20
37658;DHT22;23500;53.268;8.308;2022-07-29T08:13:59;21.00;65.40
37658;DHT22;23500;53.268;8.308;2022-07-29T08:16:26;21.00;65.30
37658;DHT22;23500;53.268;8.308;2022-07-29T08:18:52;21.00;65.10
37658;DHT22;23500;53.268;8.308;2022-07-29T08:21:22;21.10;64.80
37658;DHT22;23500;53.268;8.308;2022-07-29T08:23:50;21.10;65.30
37658;DHT22;23500;53.268;8.308;2022-07-29T08:26:19;21.10;65.30
37658;DHT22;23500;53.268;8.308;2022-07-29T08:28:46;21.10;65.30
37658;DHT22;23500;53.268;8.308;2022-07-29T08:31:14;21.10;65.20
37658;DHT22;23500;53.268;8.308;2022-07-29T08:33:40;21.10;65.20
37658;DHT22;23500;53.268;8.308;2022-07-29T08:36:06;21.10;65.90
37658;DHT22;23500;53.268;8.308;2022-07-29T08:38:32;21.10;65.20
37658;DHT22;23500;53.268;8.308;2022-07-29T08:41:01;21.10;65.20
37658;DHT22;23500;53.268;8.308;2022-07-29T08:43:28;21.20;65.20
37658;DHT22;23500;53.268;8.308;2022-07-29T08:45:54;21.20;65.20
37658;DHT22;23500;53.268;8.308;2022-07-29T08:48:21;21.20;65.10
37658;DHT22;23500;53.268;8.308;2022-07-29T08:50:50;21.20;65.10
37658;DHT22;23500;53.268;8.308;2022-07-29T08:53:17;21.20;65.10
37658;DHT22;23500;53.268;8.308;2022-07-29T08:55:45;21.20;65.10
37658;DHT22;23500;53.268;8.308;2022-07-29T08:58:13;21.20;65.10
37658;DHT22;23500;53.268;8.308;2022-07-29T09:00:43;21.20;65.00
37658;DHT22;23500;53.268;8.308;2022-07-29T09:03:12;21.20;65.10
37658;DHT22;23500;53.268;8.308;2022-07-29T09:05:42;21.20;65.00
37658;DHT22;23500;53.268;8.308;2022-07-29T09:08:08;21.20;65.00
37658;DHT22;23500;53.268;8.308;2022-07-29T09:10:37;21.20;65.00
37658;DHT22;23500;53.268;8.308;2022-07-29T09:13:03;21.20;65.10
37658;DHT22;23500;53.268;8.308;2022-07-29T09:15:29;21.20;65.00
37658;DHT22;23500;53.268;8.308;2022-07-29T09:17:54;21.20;65.00
37658;DHT22;23500;53.268;8.308;2022-07-29T09:20:22;21.20;65.00
37658;DHT22;23500;53.268;8.308;2022-07-29T09:22:49;21.20;65.00
37658;DHT22;23500;53.268;8.308;2022-07-29T09:25:37;21.30;65.00
37658;DHT22;23500;53.268;8.308;2022-07-29T09:28:11;21.30;65.00
37658;DHT22;23500;53.268;8.308;2022-07-29T09:30:54;21.30;65.00
37658;DHT22;23500;53.268;8.308;2022-07-29T09:33:21;21.30;64.80
37658;DHT22;23500;53.268;8.308;2022-07-29T09:36:07;21.30;64.70
37658;DHT22;23500;53.268;8.308;2022-07-29T09:38:36;21.30;64.80
37658;DHT22;23500;53.268;8.308;2022-07-29T09:41:05;21.30;64.70
37658;DHT22;23500;53.268;8.308;2022-07-29T09:43:33;21.30;64.60
37658;DHT22;23500;53.268;8.308;2022-07-29T09:46:12;21.30;64.50
37658;DHT22;23500;53.268;8.308;2022-07-29T09:48:38;21.30;64.50
37658;DHT22;23500;53.268;8.308;2022-07-29T09:51:04;21.30;64.40
37658;DHT22;23500;53.268;8.308;2022-07-29T09:53:35;21.40;64.40
37658;DHT22;23500;53.268;8.308;2022-07-29T09:56:05;21.40;64.40
37658;DHT22;23500;53.268;8.308;2022-07-29T09:58:32;21.40;64.40
37658;DHT22;23500;53.268;8.308;2022-07-29T10:01:01;21.40;64.30
37658;DHT22;23500;53.268;8.308;2022-07-29T10:03:27;21.40;64.30
37658;DHT22;23500;53.268;8.308;2022-07-29T10:06:11;21.40;64.20
37658;DHT22;23500;53.268;8.308;2022-07-29T10:08:41;21.40;64.20
37658;DHT22;23500;53.268;8.308;2022-07-29T10:11:18;21.40;64.10
37658;DHT22;23500;53.268;8.308;2022-07-29T10:13:46;21.50;64.20
37658;DHT22;23500;53.268;8.308;2022-07-29T10:16:13;21.50;64.10
37658;DHT22;23500;53.268;8.308;2022-07-29T10:18:43;21.50;64.10
37658;DHT22;23500;53.268;8.308;2022-07-29T10:21:09;21.50;64.00
37658;DHT22;23500;53.268;8.308;2022-07-29T10:23:35;21.50;64.00
37658;DHT22;23500;53.268;8.308;2022-07-29T10:26:02;21.50;63.90
37658;DHT22;23500;53.268;8.308;2022-07-29T10:28:30;21.50;63.90
37658;DHT22;23500;53.268;8.308;2022-07-29T10:31:01;21.50;63.90
37658;DHT22;23500;53.268;8.308;2022-07-29T10:39:11;21.50;63.90
37658;DHT22;23500;53.268;8.308;2022-07-29T10:44:20;21.50;63.80
37658;DHT22;23500;53.268;8.308;2022-07-29T10:46:46;21.50;63.80
37658;DHT22;23500;53.268;8.308;2022-07-29T10:49:20;21.50;63.90
37658;DHT22;23500;53.268;8.308;2022-07-29T10:51:56;21.50;63.80
37658;DHT22;23500;53.268;8.308;2022-07-29T10:54:41;21.60;63.90
37658;DHT22;23500;53.268;8.308;2022-07-29T10:57:15;21.60;63.80
37658;DHT22;23500;53.268;8.308;2022-07-29T10:59:45;21.60;63.80
37658;DHT22;23500;53.268;8.308;2022-07-29T11:05:09;21.60;63.70
37658;DHT22;23500;53.268;8.308;2022-07-29T11:07:38;21.60;63.70
37658;DHT22;23500;53.268;8.308;2022-07-29T11:15:09;21.60;63.50
37658;DHT22;23500;53.268;8.308;2022-07-29T11:20:47;21.60;63.50
37658;DHT22;23500;53.268;8.308;2022-07-29T11:23:32;21.60;63.40
37658;DHT22;23500;53.268;8.308;2022-07-29T11:28:39;21.60;63.40
37658;DHT22;23500;53.268;8.308;2022-07-29T11:31:08;21.60;63.20
37658;DHT22;23500;53.268;8.308;2022-07-29T11:33:35;21.60;63.30
37658;DHT22;23500;53.268;8.308;2022-07-29T11:36:10;21.60;63.40
37658;DHT22;23500;53.268;8.308;2022-07-29T11:38:36;21.60;63.20
37658;DHT22;23500;53.268;8.308;2022-07-29T11:43:56;21.60;63.20
37658;DHT22;23500;53.268;8.308;2022-07-29T11:46:47;21.60;63.20
37658;DHT22;23500;53.268;8.308;2022-07-29T11:49:25;21.60;63.20
37658;DHT22;23500;53.268;8.308;2022-07-29T11:51:52;21.60;63.20
37658;DHT22;23500;53.268;8.308;2022-07-29T11:54:25;21.60;63.00
37658;DHT22;23500;53.268;8.308;2022-07-29T11:56:53;21.60;63.10
37658;DHT22;23500;53.268;8.308;2022-07-29T11:59:21;21.60;63.10
37658;DHT22;23500;53.268;8.308;2022-07-29T12:01:57;21.60;63.00
37658;DHT22;23500;53.268;8.308;2022-07-29T12:04:23;21.70;63.10
37658;DHT22;23500;53.268;8.308;2022-07-29T12:06:50;21.70;63.10
37658;DHT22;23500;53.268;8.308;2022-07-29T12:09:17;21.70;63.10
37658;DHT22;23500;53.268;8.308;2022-07-29T12:11:43;21.70;63.00
37658;DHT22;23500;53.268;8.308;2022-07-29T12:14:08;21.70;63.10
37658;DHT22;23500;53.268;8.308;2022-07-29T12:16:37;21.70;63.10
37658;DHT22;23500;53.268;8.308;2022-07-29T12:19:03;21.70;63.10
37658;DHT22;23500;53.268;8.308;2022-07-29T12:21:46;21.70;63.10
37658;DHT22;23500;53.268;8.308;2022-07-29T12:24:13;21.70;63.00
37658;DHT22;23500;53.268;8.308;2022-07-29T12:26:56;21.70;63.10
37658;DHT22;23500;53.268;8.308;2022-07-29T12:29:22;21.70;63.10
37658;DHT22;23500;53.268;8.308;2022-07-29T12:31:52;21.70;63.00
37658;DHT22;23500;53.268;8.308;2022-07-29T12:34:26;21.70;62.90
37658;DHT22;23500;53.268;8.308;2022-07-29T12:36:53;21.70;62.90
37658;DHT22;23500;53.268;8.308;2022-07-29T12:39:20;21.70;63.00
37658;DHT22;23500;53.268;8.308;2022-07-29T12:41:46;21.80;63.70
37658;DHT22;23500;53.268;8.308;2022-07-29T12:44:12;21.80;63.70
37658;DHT22;23500;53.268;8.308;2022-07-29T12:46:38;21.80;63.00
37658;DHT22;23500;53.268;8.308;2022-07-29T12:49:03;21.80;62.90
37658;DHT22;23500;53.268;8.308;2022-07-29T12:51:37;21.80;62.90
37658;DHT22;23500;53.268;8.308;2022-07-29T12:56:32;21.80;62.90
37658;DHT22;23500;53.268;8.308;2022-07-29T12:58:58;21.80;62.80
37658;DHT22;23500;53.268;8.308;2022-07-29T13:01:24;21.80;62.80
37658;DHT22;23500;53.268;8.308;2022-07-29T13:03:52;21.80;62.80
37658;DHT22;23500;53.268;8.308;2022-07-29T13:06:44;21.80;62.80
37658;DHT22;23500;53.268;8.308;2022-07-29T13:09:14;21.80;62.80
37658;DHT22;23500;53.268;8.308;2022-07-29T13:11:52;21.80;62.80
37658;DHT22;23500;53.268;8.308;2022-07-29T13:14:35;21.80;62.80
37658;DHT22;23500;53.268;8.308;2022-07-29T13:22:01;21.80;63.50
37658;DHT22;23500;53.268;8.308;2022-07-29T13:24:27;21.80;62.80
37658;DHT22;23500;53.268;8.308;2022-07-29T13:26:53;21.90;62.80
37658;DHT22;23500;53.268;8.308;2022-07-29T13:29:19;21.90;62.80
37658;DHT22;23500;53.268;8.308;2022-07-29T13:31:44;21.90;62.70
37658;DHT22;23500;53.268;8.308;2022-07-29T13:34:10;21.90;62.70
37658;DHT22;23500;53.268;8.308;2022-07-29T13:36:36;21.90;62.70
37658;DHT22;23500;53.268;8.308;2022-07-29T13:39:02;21.90;62.80
37658;DHT22;23500;53.268;8.308;2022-07-29T13:41:28;21.90;62.70
37658;DHT22;23500;53.268;8.308;2022-07-29T13:43:54;21.90;62.80
37658;DHT22;23500;53.268;8.308;2022-07-29T13:46:20;21.80;62.70
37658;DHT22;23500;53.268;8.308;2022-07-29T13:48:45;21.90;62.70
37658;DHT22;23500;53.268;8.308;2022-07-29T13:51:11;21.90;62.70
37658;DHT22;23500;53.268;8.308;2022-07-29T13:53:37;21.90;62.70
37658;DHT22;23500;53.268;8.308;2022-07-29T13:56:03;21.90;62.70
37658;DHT22;23500;53.268;8.308;2022-07-29T13:58:31;21.90;62.70
37658;DHT22;23500;53.268;8.308;2022-07-29T14:00:57;21.90;62.70
37658;DHT22;23500;53.268;8.308;2022-07-29T14:03:23;21.90;62.70
37658;DHT22;23500;53.268;8.308;2022-07-29T14:05:49;21.90;62.60
37658;DHT22;23500;53.268;8.308;2022-07-29T14:08:15;21.90;62.60
37658;DHT22;23500;53.268;8.308;2022-07-29T14:10:41;21.90;62.60
37658;DHT22;23500;53.268;8.308;2022-07-29T14:13:06;21.90;62.60
37658;DHT22;23500;53.268;8.308;2022-07-29T14:15:32;21.90;62.60
37658;DHT22;23500;53.268;8.308;2022-07-29T14:17:57;22.00;62.60
37658;DHT22;23500;53.268;8.308;2022-07-29T14:20:23;22.00;62.60
37658;DHT22;23500;53.268;8.308;2022-07-29T14:22:49;22.00;62.60
37658;DHT22;23500;53.268;8.308;2022-07-29T14:25:14;22.00;62.60
37658;DHT22;23500;53.268;8.308;2022-07-29T14:27:40;22.00;62.60
37658;DHT22;23500;53.268;8.308;2022-07-29T14:30:06;22.00;62.60
37658;DHT22;23500;53.268;8.308;2022-07-29T14:32:32;22.00;62.60
37658;DHT22;23500;53.268;8.308;2022-07-29T14:34:58;22.00;62.60
37658;DHT22;23500;53.268;8.308;2022-07-29T14:37:23;22.00;62.60
37658;DHT22;23500;53.268;8.308;2022-07-29T14:39:49;22.00;62.60
37658;DHT22;23500;53.268;8.308;2022-07-29T14:42:15;22.00;62.60
37658;DHT22;23500;53.268;8.308;2022-07-29T14:44:41;22.00;62.60
37658;DHT22;23500;53.268;8.308;2022-07-29T14:47:06;22.00;62.60
37658;DHT22;23500;53.268;8.308;2022-07-29T14:49:32;22.00;62.60
37658;DHT22;23500;53.268;8.308;2022-07-29T14:51:58;22.00;63.30
37658;DHT22;23500;53.268;8.308;2022-07-29T14:54:23;22.00;62.60
37658;DHT22;23500;53.268;8.308;2022-07-29T14:56:49;22.00;62.60
37658;DHT22;23500;53.268;8.308;2022-07-29T14:59:16;22.00;62.60
37658;DHT22;23500;53.268;8.308;2022-07-29T15:01:42;22.00;62.60
37658;DHT22;23500;53.268;8.308;2022-07-29T15:04:08;22.00;62.60
37658;DHT22;23500;53.268;8.308;2022-07-29T15:06:34;22.00;62.60
37658;DHT22;23500;53.268;8.308;2022-07-29T15:08:59;22.00;62.70
37658;DHT22;23500;53.268;8.308;2022-07-29T15:11:25;22.00;62.70
37658;DHT22;23500;53.268;8.308;2022-07-29T15:13:50;22.00;62.70
37658;DHT22;23500;53.268;8.308;2022-07-29T15:16:16;22.00;62.80
37658;DHT22;23500;53.268;8.308;2022-07-29T15:18:42;22.00;62.80
37658;DHT22;23500;53.268;8.308;2022-07-29T15:21:07;22.00;62.80
37658;DHT22;23500;53.268;8.308;2022-07-29T15:23:34;22.00;62.80
37658;DHT22;23500;53.268;8.308;2022-07-29T15:26:03;22.00;62.80
37658;DHT22;23500;53.268;8.308;2022-07-29T15:28:29;22.00;63.60
37658;DHT22;23500;53.268;8.308;2022-07-29T15:30:54;22.00;63.60
37658;DHT22;23500;53.268;8.308;2022-07-29T15:33:20;21.90;62.90
37658;DHT22;23500;53.268;8.308;2022-07-29T15:35:46;21.90;62.90
37658;DHT22;23500;53.268;8.308;2022-07-29T15:38:11;22.00;63.00
37658;DHT22;23500;53.268;8.308;2022-07-29T15:40:38;21.90;63.00
37658;DHT22;23500;53.268;8.308;2022-07-29T15:43:06;21.90;63.00
37658;DHT22;23500;53.268;8.308;2022-07-29T15:45:42;21.90;63.10
37658;DHT22;23500;53.268;8.308;2022-07-29T15:48:31;21.90;63.10
37658;DHT22;23500;53.268;8.308;2022-07-29T15:50:58;21.90;63.10
37658;DHT22;23500;53.268;8.308;2022-07-29T15:53:24;21.90;63.10
37658;DHT22;23500;53.268;8.308;2022-07-29T15:55:50;21.90;63.10
37658;DHT22;23500;53.268;8.308;2022-07-29T15:58:16;21.90;63.10
37658;DHT22;23500;53.268;8.308;2022-07-29T16:00:42;21.90;63.20
37658;DHT22;23500;53.268;8.308;2022-07-29T16:03:07;21.90;63.10
37658;DHT22;23500;53.268;8.308;2022-07-29T16:05:33;21.90;63.20
37658;DHT22;23500;53.268;8.308;2022-07-29T16:07:58;21.90;63.20
37658;DHT22;23500;53.268;8.308;2022-07-29T16:10:25;21.90;63.30
37658;DHT22;23500;53.268;8.308;2022-07-29T16:12:50;21.90;63.20
37658;DHT22;23500;53.268;8.308;2022-07-29T16:15:16;21.90;63.20
37658;DHT22;23500;53.268;8.308;2022-07-29T16:17:42;21.90;63.30
37658;DHT22;23500;53.268;8.308;2022-07-29T16:20:08;21.90;63.20
37658;DHT22;23500;53.268;8.308;2022-07-29T16:22:34;21.90;63.20
37658;DHT22;23500;53.268;8.308;2022-07-29T16:24:59;21.90;63.30
37658;DHT22;23500;53.268;8.308;2022-07-29T16:27:25;21.90;63.30
37658;DHT22;23500;53.268;8.308;2022-07-29T16:29:53;21.90;63.30